Stewart, Texas
Current Conditions -  °F | °C
As of 10:35 AM on Saturday 25 Oct 2014 (Local Time) from KRFI Reporting Station
Clear Clear  
Wind Chill: 71°   Ceiling: Unl
Heat Index: 71°   Visibility: 10mi
Dew Point: 59°   Wind: 5mph
Humidity: 66%   Direction: 210°SSW
Pressure: 30.2"   Gusts: NA
Location:  32.1449°N, 94.7416°W
Report Text: KRFI 251535Z AUTO 21004KT 10SM CLR 22/15 A3020 RMK AO2 T02160150
Loading
Personal Weather Stations






























Interactive Weather Map New forecast layout! Learn more

10-Day Weather Forecast

Advertisements
Track Severe Weather on mobile